sensor_id;sensor_type;location;lat;lon;timestamp;P1;durP1;ratioP1;P2;durP2;ratioP2
4325;SDS011;58429;49.826;10.880;2022-07-03T00:00:30;7.9;;;3.2;;
4325;SDS011;58429;49.826;10.880;2022-07-03T00:01:30;7.9;;;3.2;;
4325;SDS011;58429;49.826;10.880;2022-07-03T00:02:30;7.1;;;3.3;;
4325;SDS011;58429;49.826;10.880;2022-07-03T00:03:30;7.1;;;3.3;;
4325;SDS011;58429;49.826;10.880;2022-07-03T00:04:30;7.1;;;3.3;;
4325;SDS011;58429;49.826;10.880;2022-07-03T00:05:30;7.3;;;3.3;;
4325;SDS011;58429;49.826;10.880;2022-07-03T00:06:31;7.3;;;3.3;;
4325;SDS011;58429;49.826;10.880;2022-07-03T00:07:30;7.3;;;3.3;;
4325;SDS011;58429;49.826;10.880;2022-07-03T00:08:30;6.3;;;3.1;;
4325;SDS011;58429;49.826;10.880;2022-07-03T00:09:30;6.3;;;3.1;;
4325;SDS011;58429;49.826;10.880;2022-07-03T00:10:30;6.3;;;3.1;;
4325;SDS011;58429;49.826;10.880;2022-07-03T00:11:30;6.9;;;3.4;;
4325;SDS011;58429;49.826;10.880;2022-07-03T00:12:30;6.9;;;3.4;;
4325;SDS011;58429;49.826;10.880;2022-07-03T00:13:30;6.9;;;3.4;;
4325;SDS011;58429;49.826;10.880;2022-07-03T00:14:30;6.8;;;3.5;;
4325;SDS011;58429;49.826;10.880;2022-07-03T00:15:30;6.8;;;3.5;;
4325;SDS011;58429;49.826;10.880;2022-07-03T00:16:30;6.8;;;3.5;;
4325;SDS011;58429;49.826;10.880;2022-07-03T00:17:30;6.6;;;3.5;;
4325;SDS011;58429;49.826;10.880;2022-07-03T00:18:30;6.6;;;3.5;;
4325;SDS011;58429;49.826;10.880;2022-07-03T00:19:30;6.6;;;3.5;;
4325;SDS011;58429;49.826;10.880;2022-07-03T00:20:31;7.1;;;3.6;;
4325;SDS011;58429;49.826;10.880;2022-07-03T00:21:31;7.1;;;3.6;;
4325;SDS011;58429;49.826;10.880;2022-07-03T00:22:30;7.1;;;3.6;;
4325;SDS011;58429;49.826;10.880;2022-07-03T00:23:34;7.3;;;3.5;;
4325;SDS011;58429;49.826;10.880;2022-07-03T00:24:32;7.3;;;3.5;;
4325;SDS011;58429;49.826;10.880;2022-07-03T00:25:30;7.3;;;3.5;;
4325;SDS011;58429;49.826;10.880;2022-07-03T00:26:32;7.9;;;3.5;;
4325;SDS011;58429;49.826;10.880;2022-07-03T00:27:31;7.9;;;3.5;;
4325;SDS011;58429;49.826;10.880;2022-07-03T00:28:30;7.9;;;3.5;;
4325;SDS011;58429;49.826;10.880;2022-07-03T00:29:31;7.2;;;3.3;;
4325;SDS011;58429;49.826;10.880;2022-07-03T00:30:30;7.2;;;3.3;;
4325;SDS011;58429;49.826;10.880;2022-07-03T00:31:31;7.2;;;3.3;;
4325;SDS011;58429;49.826;10.880;2022-07-03T00:32:30;8;;;3.7;;
4325;SDS011;58429;49.826;10.880;2022-07-03T00:33:31;8;;;3.7;;
4325;SDS011;58429;49.826;10.880;2022-07-03T00:34:30;8;;;3.7;;
4325;SDS011;58429;49.826;10.880;2022-07-03T00:35:30;8.2;;;4.2;;
4325;SDS011;58429;49.826;10.880;2022-07-03T00:36:34;8.2;;;4.2;;
4325;SDS011;58429;49.826;10.880;2022-07-03T00:37:30;8.2;;;4.2;;
4325;SDS011;58429;49.826;10.880;2022-07-03T00:38:30;8.9;;;4;;
4325;SDS011;58429;49.826;10.880;2022-07-03T00:39:30;8.9;;;4;;
4325;SDS011;58429;49.826;10.880;2022-07-03T00:40:30;8.9;;;4;;
4325;SDS011;58429;49.826;10.880;2022-07-03T00:41:31;8.1;;;4.2;;
4325;SDS011;58429;49.826;10.880;2022-07-03T00:42:30;8.1;;;4.2;;
4325;SDS011;58429;49.826;10.880;2022-07-03T00:43:30;8.1;;;4.2;;
4325;SDS011;58429;49.826;10.880;2022-07-03T00:44:30;8.1;;;4.2;;
4325;SDS011;58429;49.826;10.880;2022-07-03T00:45:31;7.8;;;4;;
4325;SDS011;58429;49.826;10.880;2022-07-03T00:46:30;7.8;;;4;;
4325;SDS011;58429;49.826;10.880;2022-07-03T00:47:30;7.8;;;4;;
4325;SDS011;58429;49.826;10.880;2022-07-03T00:48:30;8.7;;;4.1;;
4325;SDS011;58429;49.826;10.880;2022-07-03T00:49:31;8.7;;;4.1;;
4325;SDS011;58429;49.826;10.880;2022-07-03T00:50:33;8.7;;;4.1;;
4325;SDS011;58429;49.826;10.880;2022-07-03T00:51:30;8.3;;;3.9;;
4325;SDS011;58429;49.826;10.880;2022-07-03T00:52:30;8.3;;;3.9;;
4325;SDS011;58429;49.826;10.880;2022-07-03T00:53:32;8.3;;;3.9;;
4325;SDS011;58429;49.826;10.880;2022-07-03T00:54:32;7.3;;;3.6;;
4325;SDS011;58429;49.826;10.880;2022-07-03T00:55:30;7.3;;;3.6;;
4325;SDS011;58429;49.826;10.880;2022-07-03T00:56:30;7.3;;;3.6;;
4325;SDS011;58429;49.826;10.880;2022-07-03T00:57:30;7.7;;;3.7;;
4325;SDS011;58429;49.826;10.880;2022-07-03T00:58:30;7.7;;;3.7;;
4325;SDS011;58429;49.826;10.880;2022-07-03T00:59:30;7.7;;;3.7;;
4325;SDS011;58429;49.826;10.880;2022-07-03T01:00:30;7.1;;;3.8;;
4325;SDS011;58429;49.826;10.880;2022-07-03T01:01:31;7.1;;;3.8;;
4325;SDS011;58429;49.826;10.880;2022-07-03T01:02:34;7.1;;;3.8;;
4325;SDS011;58429;49.826;10.880;2022-07-03T01:03:31;7.3;;;3.7;;
4325;SDS011;58429;49.826;10.880;2022-07-03T01:04:35;7.3;;;3.7;;
4325;SDS011;58429;49.826;10.880;2022-07-03T01:05:31;7.3;;;3.7;;
4325;SDS011;58429;49.826;10.880;2022-07-03T01:06:33;6.8;;;3.7;;
4325;SDS011;58429;49.826;10.880;2022-07-03T01:07:33;6.8;;;3.7;;
4325;SDS011;58429;49.826;10.880;2022-07-03T01:08:34;6.8;;;3.7;;
4325;SDS011;58429;49.826;10.880;2022-07-03T01:09:34;7.5;;;3.8;;
4325;SDS011;58429;49.826;10.880;2022-07-03T01:10:34;7.5;;;3.8;;
4325;SDS011;58429;49.826;10.880;2022-07-03T01:11:31;7.5;;;3.8;;
4325;SDS011;58429;49.826;10.880;2022-07-03T01:12:33;7.1;;;3.9;;
4325;SDS011;58429;49.826;10.880;2022-07-03T01:13:32;7.1;;;3.9;;
4325;SDS011;58429;49.826;10.880;2022-07-03T01:14:32;7.1;;;3.9;;
4325;SDS011;58429;49.826;10.880;2022-07-03T01:15:35;7.5;;;3.7;;
4325;SDS011;58429;49.826;10.880;2022-07-03T01:16:31;7.5;;;3.7;;
4325;SDS011;58429;49.826;10.880;2022-07-03T01:17:31;7.5;;;3.7;;
4325;SDS011;58429;49.826;10.880;2022-07-03T01:18:34;7;;;3.5;;
4325;SDS011;58429;49.826;10.880;2022-07-03T01:19:38;7;;;3.5;;
4325;SDS011;58429;49.826;10.880;2022-07-03T01:20:30;7;;;3.5;;
4325;SDS011;58429;49.826;10.880;2022-07-03T01:21:33;7.9;;;4;;
4325;SDS011;58429;49.826;10.880;2022-07-03T01:22:32;7.9;;;4;;
4325;SDS011;58429;49.826;10.880;2022-07-03T01:23:31;7.9;;;4;;
4325;SDS011;58429;49.826;10.880;2022-07-03T01:24:37;9;;;4.1;;
4325;SDS011;58429;49.826;10.880;2022-07-03T01:25:36;9;;;4.1;;
4325;SDS011;58429;49.826;10.880;2022-07-03T01:26:30;9;;;4.1;;
4325;SDS011;58429;49.826;10.880;2022-07-03T01:27:32;8.9;;;4;;
4325;SDS011;58429;49.826;10.880;2022-07-03T01:28:30;8.9;;;4;;
4325;SDS011;58429;49.826;10.880;2022-07-03T01:29:31;8.9;;;4;;
4325;SDS011;58429;49.826;10.880;2022-07-03T01:30:31;7.7;;;4;;
4325;SDS011;58429;49.826;10.880;2022-07-03T01:31:30;7.7;;;4;;
4325;SDS011;58429;49.826;10.880;2022-07-03T01:32:32;7.7;;;4;;
4325;SDS011;58429;49.826;10.880;2022-07-03T01:33:31;8.2;;;4.1;;
4325;SDS011;58429;49.826;10.880;2022-07-03T01:34:33;8.2;;;4.1;;
4325;SDS011;58429;49.826;10.880;2022-07-03T01:35:32;8.2;;;4.1;;
4325;SDS011;58429;49.826;10.880;2022-07-03T01:36:30;8.9;;;4.2;;
4325;SDS011;58429;49.826;10.880;2022-07-03T01:37:30;8.9;;;4.2;;
4325;SDS011;58429;49.826;10.880;2022-07-03T01:38:31;8.9;;;4.2;;
4325;SDS011;58429;49.826;10.880;2022-07-03T01:39:30;8.9;;;4.3;;
4325;SDS011;58429;49.826;10.880;2022-07-03T01:40:31;8.9;;;4.3;;
4325;SDS011;58429;49.826;10.880;2022-07-03T01:41:30;8.9;;;4.3;;
4325;SDS011;58429;49.826;10.880;2022-07-03T01:42:32;7.6;;;4;;
4325;SDS011;58429;49.826;10.880;2022-07-03T01:43:31;7.6;;;4;;
4325;SDS011;58429;49.826;10.880;2022-07-03T01:44:30;7.6;;;4;;
4325;SDS011;58429;49.826;10.880;2022-07-03T01:45:31;8.5;;;3.5;;
4325;SDS011;58429;49.826;10.880;2022-07-03T01:46:31;8.5;;;3.5;;
4325;SDS011;58429;49.826;10.880;2022-07-03T01:47:30;8.5;;;3.5;;
4325;SDS011;58429;49.826;10.880;2022-07-03T01:48:31;8;;;4;;
4325;SDS011;58429;49.826;10.880;2022-07-03T01:49:30;8;;;4;;
4325;SDS011;58429;49.826;10.880;2022-07-03T01:50:30;8;;;4;;
4325;SDS011;58429;49.826;10.880;2022-07-03T01:51:30;7.1;;;4;;
4325;SDS011;58429;49.826;10.880;2022-07-03T01:52:30;7.1;;;4;;
4325;SDS011;58429;49.826;10.880;2022-07-03T01:53:30;7.1;;;4;;
4325;SDS011;58429;49.826;10.880;2022-07-03T01:54:30;9.7;;;3.9;;
4325;SDS011;58429;49.826;10.880;2022-07-03T01:55:31;9.7;;;3.9;;
4325;SDS011;58429;49.826;10.880;2022-07-03T01:56:30;9.7;;;3.9;;
4325;SDS011;58429;49.826;10.880;2022-07-03T01:57:33;7.5;;;3.6;;
4325;SDS011;58429;49.826;10.880;2022-07-03T01:58:30;7.5;;;3.6;;
4325;SDS011;58429;49.826;10.880;2022-07-03T01:59:30;7.5;;;3.6;;
4325;SDS011;58429;49.826;10.880;2022-07-03T02:00:32;7.1;;;3.6;;
4325;SDS011;58429;49.826;10.880;2022-07-03T02:01:31;7.1;;;3.6;;
4325;SDS011;58429;49.826;10.880;2022-07-03T02:02:31;7.1;;;3.6;;
4325;SDS011;58429;49.826;10.880;2022-07-03T02:03:31;7.1;;;3.8;;
4325;SDS011;58429;49.826;10.880;2022-07-03T02:04:32;7.1;;;3.8;;
4325;SDS011;58429;49.826;10.880;2022-07-03T02:05:32;7.1;;;3.8;;
4325;SDS011;58429;49.826;10.880;2022-07-03T02:06:34;7.4;;;4;;
4325;SDS011;58429;49.826;10.880;2022-07-03T02:07:34;7.4;;;4;;
4325;SDS011;58429;49.826;10.880;2022-07-03T02:08:33;7.4;;;4;;
4325;SDS011;58429;49.826;10.880;2022-07-03T02:09:33;7.7;;;4.1;;
4325;SDS011;58429;49.826;10.880;2022-07-03T02:10:33;7.7;;;4.1;;
4325;SDS011;58429;49.826;10.880;2022-07-03T02:11:32;7.7;;;4.1;;
4325;SDS011;58429;49.826;10.880;2022-07-03T02:12:33;7.9;;;3.9;;
4325;SDS011;58429;49.826;10.880;2022-07-03T02:13:30;7.9;;;3.9;;
4325;SDS011;58429;49.826;10.880;2022-07-03T02:14:32;7.9;;;3.9;;
4325;SDS011;58429;49.826;10.880;2022-07-03T02:15:32;7.8;;;3.7;;
4325;SDS011;58429;49.826;10.880;2022-07-03T02:16:31;7.8;;;3.7;;
4325;SDS011;58429;49.826;10.880;2022-07-03T02:17:33;7.8;;;3.7;;
4325;SDS011;58429;49.826;10.880;2022-07-03T02:18:31;7.4;;;3.9;;
4325;SDS011;58429;49.826;10.880;2022-07-03T02:19:32;7.4;;;3.9;;
4325;SDS011;58429;49.826;10.880;2022-07-03T02:20:30;7.4;;;3.9;;
4325;SDS011;58429;49.826;10.880;2022-07-03T02:21:30;7.1;;;3.8;;
4325;SDS011;58429;49.826;10.880;2022-07-03T02:22:31;7.1;;;3.8;;
4325;SDS011;58429;49.826;10.880;2022-07-03T02:23:31;7.1;;;3.8;;
4325;SDS011;58429;49.826;10.880;2022-07-03T02:24:30;7.7;;;4;;
4325;SDS011;58429;49.826;10.880;2022-07-03T02:25:33;7.7;;;4;;
4325;SDS011;58429;49.826;10.880;2022-07-03T02:26:32;7.7;;;4;;
4325;SDS011;58429;49.826;10.880;2022-07-03T02:27:32;9.6;;;4.1;;
4325;SDS011;58429;49.826;10.880;2022-07-03T02:28:34;9.6;;;4.1;;
4325;SDS011;58429;49.826;10.880;2022-07-03T02:29:31;9.6;;;4.1;;
4325;SDS011;58429;49.826;10.880;2022-07-03T02:30:30;8.8;;;4.1;;
4325;SDS011;58429;49.826;10.880;2022-07-03T02:31:32;8.8;;;4.1;;
4325;SDS011;58429;49.826;10.880;2022-07-03T02:32:32;8.8;;;4.1;;
4325;SDS011;58429;49.826;10.880;2022-07-03T02:33:30;8.3;;;3.7;;
4325;SDS011;58429;49.826;10.880;2022-07-03T02:34:30;8.3;;;3.7;;
4325;SDS011;58429;49.826;10.880;2022-07-03T02:35:31;8.3;;;3.7;;
4325;SDS011;58429;49.826;10.880;2022-07-03T02:36:30;7.6;;;3.8;;
4325;SDS011;58429;49.826;10.880;2022-07-03T02:37:32;7.6;;;3.8;;
4325;SDS011;58429;49.826;10.880;2022-07-03T02:38:30;7.6;;;3.8;;
4325;SDS011;58429;49.826;10.880;2022-07-03T02:39:32;7.6;;;4.1;;
4325;SDS011;58429;49.826;10.880;2022-07-03T02:40:31;7.6;;;4.1;;
4325;SDS011;58429;49.826;10.880;2022-07-03T02:41:39;7.6;;;4.1;;
4325;SDS011;58429;49.826;10.880;2022-07-03T02:42:32;7.6;;;4.1;;
4325;SDS011;58429;49.826;10.880;2022-07-03T02:43:31;6.5;;;3.3;;
4325;SDS011;58429;49.826;10.880;2022-07-03T02:44:31;6.5;;;3.3;;
4325;SDS011;58429;49.826;10.880;2022-07-03T02:45:32;6.5;;;3.3;;
4325;SDS011;58429;49.826;10.880;2022-07-03T02:46:33;6.9;;;3.4;;
4325;SDS011;58429;49.826;10.880;2022-07-03T02:47:33;6.9;;;3.4;;
4325;SDS011;58429;49.826;10.880;2022-07-03T02:48:32;6.9;;;3.4;;
4325;SDS011;58429;49.826;10.880;2022-07-03T02:49:40;7.2;;;3.7;;
4325;SDS011;58429;49.826;10.880;2022-07-03T02:50:30;7.2;;;3.7;;
4325;SDS011;58429;49.826;10.880;2022-07-03T02:51:32;7.2;;;3.7;;
4325;SDS011;58429;49.826;10.880;2022-07-03T02:52:32;7.3;;;3.7;;
4325;SDS011;58429;49.826;10.880;2022-07-03T02:53:33;7.3;;;3.7;;
4325;SDS011;58429;49.826;10.880;2022-07-03T02:54:31;7.3;;;3.7;;
4325;SDS011;58429;49.826;10.880;2022-07-03T02:55:46;6.8;;;3.5;;
4325;SDS011;58429;49.826;10.880;2022-07-03T02:56:32;6.8;;;3.5;;
4325;SDS011;58429;49.826;10.880;2022-07-03T02:57:36;6.8;;;3.5;;
4325;SDS011;58429;49.826;10.880;2022-07-03T02:58:52;6.9;;;3.7;;
4325;SDS011;58429;49.826;10.880;2022-07-03T02:59:32;6.9;;;3.7;;
4325;SDS011;58429;49.826;10.880;2022-07-03T03:00:30;6.9;;;3.7;;
4325;SDS011;58429;49.826;10.880;2022-07-03T03:01:34;8.1;;;4.8;;
4325;SDS011;58429;49.826;10.880;2022-07-03T03:03:02;8.1;;;4.8;;
4325;SDS011;58429;49.826;10.880;2022-07-03T03:03:30;8.1;;;4.8;;
4325;SDS011;58429;49.826;10.880;2022-07-03T03:04:31;8.8;;;4.3;;
4325;SDS011;58429;49.826;10.880;2022-07-03T03:05:31;8.8;;;4.3;;
4325;SDS011;58429;49.826;10.880;2022-07-03T03:06:30;8.8;;;4.3;;
4325;SDS011;58429;49.826;10.880;2022-07-03T03:07:33;7.8;;;4.1;;
4325;SDS011;58429;49.826;10.880;2022-07-03T03:08:34;7.8;;;4.1;;
4325;SDS011;58429;49.826;10.880;2022-07-03T03:09:32;7.8;;;4.1;;
4325;SDS011;58429;49.826;10.880;2022-07-03T03:10:31;7.9;;;3.8;;
4325;SDS011;58429;49.826;10.880;2022-07-03T03:11:32;7.9;;;3.8;;
4325;SDS011;58429;49.826;10.880;2022-07-03T03:12:31;7.9;;;3.8;;
4325;SDS011;58429;49.826;10.880;2022-07-03T03:13:31;7.6;;;3.7;;
4325;SDS011;58429;49.826;10.880;2022-07-03T03:14:33;7.6;;;3.7;;
4325;SDS011;58429;49.826;10.880;2022-07-03T03:15:31;7.6;;;3.7;;
4325;SDS011;58429;49.826;10.880;2022-07-03T03:16:30;7.7;;;3.9;;
4325;SDS011;58429;49.826;10.880;2022-07-03T03:17:34;7.7;;;3.9;;
4325;SDS011;58429;49.826;10.880;2022-07-03T03:18:30;7.7;;;3.9;;
4325;SDS011;58429;49.826;10.880;2022-07-03T03:19:30;6.9;;;3.6;;
4325;SDS011;58429;49.826;10.880;2022-07-03T03:20:31;6.9;;;3.6;;
4325;SDS011;58429;49.826;10.880;2022-07-03T03:21:31;6.9;;;3.6;;
4325;SDS011;58429;49.826;10.880;2022-07-03T03:22:32;7.9;;;3.8;;
4325;SDS011;58429;49.826;10.880;2022-07-03T03:23:34;7.9;;;3.8;;
4325;SDS011;58429;49.826;10.880;2022-07-03T03:24:30;7.9;;;3.8;;
4325;SDS011;58429;49.826;10.880;2022-07-03T03:25:30;8.5;;;3.9;;
4325;SDS011;58429;49.826;10.880;2022-07-03T03:26:30;8.5;;;3.9;;
4325;SDS011;58429;49.826;10.880;2022-07-03T03:27:30;8.5;;;3.9;;
4325;SDS011;58429;49.826;10.880;2022-07-03T03:28:30;7.9;;;3.5;;
4325;SDS011;58429;49.826;10.880;2022-07-03T03:29:30;7.9;;;3.5;;
4325;SDS011;58429;49.826;10.880;2022-07-03T03:30:30;7.9;;;3.5;;
4325;SDS011;58429;49.826;10.880;2022-07-03T03:31:30;7;;;3.4;;
4325;SDS011;58429;49.826;10.880;2022-07-03T03:32:30;7;;;3.4;;
4325;SDS011;58429;49.826;10.880;2022-07-03T03:33:30;7;;;3.4;;
4325;SDS011;58429;49.826;10.880;2022-07-03T03:34:31;7.8;;;4.1;;
4325;SDS011;58429;49.826;10.880;2022-07-03T03:35:30;7.8;;;4.1;;
4325;SDS011;58429;49.826;10.880;2022-07-03T03:36:30;7.8;;;4.1;;
4325;SDS011;58429;49.826;10.880;2022-07-03T03:37:30;7.2;;;4;;
4325;SDS011;58429;49.826;10.880;2022-07-03T03:38:30;7.2;;;4;;
4325;SDS011;58429;49.826;10.880;2022-07-03T03:39:30;7.2;;;4;;
4325;SDS011;58429;49.826;10.880;2022-07-03T03:40:30;7.5;;;3.9;;
4325;SDS011;58429;49.826;10.880;2022-07-03T03:41:30;7.5;;;3.9;;
4325;SDS011;58429;49.826;10.880;2022-07-03T03:42:30;7.5;;;3.9;;
4325;SDS011;58429;49.826;10.880;2022-07-03T03:43:31;7.7;;;3.9;;
4325;SDS011;58429;49.826;10.880;2022-07-03T03:44:30;7.7;;;3.9;;
4325;SDS011;58429;49.826;10.880;2022-07-03T03:45:30;7.7;;;3.9;;
4325;SDS011;58429;49.826;10.880;2022-07-03T03:46:30;7.6;;;3.6;;
4325;SDS011;58429;49.826;10.880;2022-07-03T03:47:30;7.6;;;3.6;;
4325;SDS011;58429;49.826;10.880;2022-07-03T03:48:31;7.6;;;3.6;;
4325;SDS011;58429;49.826;10.880;2022-07-03T03:49:30;7.8;;;4.1;;
4325;SDS011;58429;49.826;10.880;2022-07-03T03:50:30;7.8;;;4.1;;
4325;SDS011;58429;49.826;10.880;2022-07-03T03:51:30;7.8;;;4.1;;
4325;SDS011;58429;49.826;10.880;2022-07-03T03:52:30;7.2;;;3.9;;
4325;SDS011;58429;49.826;10.880;2022-07-03T03:53:30;7.2;;;3.9;;
4325;SDS011;58429;49.826;10.880;2022-07-03T03:54:30;7.2;;;3.9;;
4325;SDS011;58429;49.826;10.880;2022-07-03T03:55:30;7.8;;;3.7;;
4325;SDS011;58429;49.826;10.880;2022-07-03T03:56:30;7.8;;;3.7;;
4325;SDS011;58429;49.826;10.880;2022-07-03T03:57:30;7.8;;;3.7;;
4325;SDS011;58429;49.826;10.880;2022-07-03T03:58:31;7.5;;;3.9;;
4325;SDS011;58429;49.826;10.880;2022-07-03T03:59:30;7.5;;;3.9;;
4325;SDS011;58429;49.826;10.880;2022-07-03T04:00:30;7.5;;;3.9;;
4325;SDS011;58429;49.826;10.880;2022-07-03T04:01:30;7.7;;;3.9;;
4325;SDS011;58429;49.826;10.880;2022-07-03T04:02:30;7.7;;;3.9;;
4325;SDS011;58429;49.826;10.880;2022-07-03T04:03:31;7.7;;;3.9;;
4325;SDS011;58429;49.826;10.880;2022-07-03T04:04:30;8.9;;;4.3;;
4325;SDS011;58429;49.826;10.880;2022-07-03T04:05:30;8.9;;;4.3;;
4325;SDS011;58429;49.826;10.880;2022-07-03T04:06:30;8.9;;;4.3;;
4325;SDS011;58429;49.826;10.880;2022-07-03T04:07:30;9.1;;;4.4;;
4325;SDS011;58429;49.826;10.880;2022-07-03T04:08:30;9.1;;;4.4;;
4325;SDS011;58429;49.826;10.880;2022-07-03T04:09:30;9.1;;;4.4;;
4325;SDS011;58429;49.826;10.880;2022-07-03T04:10:30;8.6;;;4.1;;
4325;SDS011;58429;49.826;10.880;2022-07-03T04:11:30;8.6;;;4.1;;
4325;SDS011;58429;49.826;10.880;2022-07-03T04:12:30;8.6;;;4.1;;
4325;SDS011;58429;49.826;10.880;2022-07-03T04:13:30;9.3;;;4.2;;
4325;SDS011;58429;49.826;10.880;2022-07-03T04:14:30;9.3;;;4.2;;
4325;SDS011;58429;49.826;10.880;2022-07-03T04:15:30;9.3;;;4.2;;
4325;SDS011;58429;49.826;10.880;2022-07-03T04:16:30;9.1;;;3.9;;
4325;SDS011;58429;49.826;10.880;2022-07-03T04:17:30;9.1;;;3.9;;
4325;SDS011;58429;49.826;10.880;2022-07-03T04:18:30;9.1;;;3.9;;
4325;SDS011;58429;49.826;10.880;2022-07-03T04:19:30;8.3;;;4;;
4325;SDS011;58429;49.826;10.880;2022-07-03T04:20:30;8.3;;;4;;
4325;SDS011;58429;49.826;10.880;2022-07-03T04:21:30;8.3;;;4;;
4325;SDS011;58429;49.826;10.880;2022-07-03T04:22:30;8.1;;;3.9;;
4325;SDS011;58429;49.826;10.880;2022-07-03T04:23:30;8.1;;;3.9;;
4325;SDS011;58429;49.826;10.880;2022-07-03T04:24:30;8.1;;;3.9;;
4325;SDS011;58429;49.826;10.880;2022-07-03T04:25:30;9.4;;;3.9;;
4325;SDS011;58429;49.826;10.880;2022-07-03T04:26:30;9.4;;;3.9;;
4325;SDS011;58429;49.826;10.880;2022-07-03T04:27:30;9.4;;;3.9;;
4325;SDS011;58429;49.826;10.880;2022-07-03T04:28:30;8.1;;;4.1;;
4325;SDS011;58429;49.826;10.880;2022-07-03T04:29:30;8.1;;;4.1;;
4325;SDS011;58429;49.826;10.880;2022-07-03T04:30:30;8.1;;;4.1;;
4325;SDS011;58429;49.826;10.880;2022-07-03T04:31:30;8.3;;;4.3;;
4325;SDS011;58429;49.826;10.880;2022-07-03T04:32:30;8.3;;;4.3;;
4325;SDS011;58429;49.826;10.880;2022-07-03T04:33:30;8.3;;;4.3;;
4325;SDS011;58429;49.826;10.880;2022-07-03T04:34:30;8;;;4.4;;
4325;SDS011;58429;49.826;10.880;2022-07-03T04:35:31;8;;;4.4;;
4325;SDS011;58429;49.826;10.880;2022-07-03T04:36:30;8;;;4.4;;
4325;SDS011;58429;49.826;10.880;2022-07-03T04:37:30;8.6;;;4.1;;
4325;SDS011;58429;49.826;10.880;2022-07-03T04:38:30;8.6;;;4.1;;
4325;SDS011;58429;49.826;10.880;2022-07-03T04:39:30;8.6;;;4.1;;
4325;SDS011;58429;49.826;10.880;2022-07-03T04:40:30;8.6;;;4.1;;
4325;SDS011;58429;49.826;10.880;2022-07-03T04:41:30;7.4;;;4.3;;
4325;SDS011;58429;49.826;10.880;2022-07-03T04:42:30;7.4;;;4.3;;
4325;SDS011;58429;49.826;10.880;2022-07-03T04:43:30;7.4;;;4.3;;
4325;SDS011;58429;49.826;10.880;2022-07-03T04:44:30;8.4;;;4.5;;
4325;SDS011;58429;49.826;10.880;2022-07-03T04:45:30;8.4;;;4.5;;
4325;SDS011;58429;49.826;10.880;2022-07-03T04:46:30;8.4;;;4.5;;
4325;SDS011;58429;49.826;10.880;2022-07-03T04:47:30;7.9;;;4.1;;
4325;SDS011;58429;49.826;10.880;2022-07-03T04:48:30;7.9;;;4.1;;
4325;SDS011;58429;49.826;10.880;2022-07-03T04:49:30;7.9;;;4.1;;
4325;SDS011;58429;49.826;10.880;2022-07-03T04:50:30;8.5;;;4.1;;
4325;SDS011;58429;49.826;10.880;2022-07-03T04:51:30;8.5;;;4.1;;
4325;SDS011;58429;49.826;10.880;2022-07-03T04:52:30;8.5;;;4.1;;
4325;SDS011;58429;49.826;10.880;2022-07-03T04:53:30;7.5;;;4.1;;
4325;SDS011;58429;49.826;10.880;2022-07-03T04:54:30;7.5;;;4.1;;
4325;SDS011;58429;49.826;10.880;2022-07-03T04:55:30;7.5;;;4.1;;
4325;SDS011;58429;49.826;10.880;2022-07-03T04:56:30;8.2;;;4.2;;
4325;SDS011;58429;49.826;10.880;2022-07-03T04:57:30;8.2;;;4.2;;
4325;SDS011;58429;49.826;10.880;2022-07-03T04:58:30;8.2;;;4.2;;
4325;SDS011;58429;49.826;10.880;2022-07-03T04:59:30;8.5;;;4.3;;
4325;SDS011;58429;49.826;10.880;2022-07-03T05:00:30;8.5;;;4.3;;
4325;SDS011;58429;49.826;10.880;2022-07-03T05:01:30;8.5;;;4.3;;
4325;SDS011;58429;49.826;10.880;2022-07-03T05:02:30;9.1;;;4.7;;
4325;SDS011;58429;49.826;10.880;2022-07-03T05:03:30;9.1;;;4.7;;
4325;SDS011;58429;49.826;10.880;2022-07-03T05:04:30;9.1;;;4.7;;
4325;SDS011;58429;49.826;10.880;2022-07-03T05:05:30;10.3;;;4.7;;
4325;SDS011;58429;49.826;10.880;2022-07-03T05:06:30;10.3;;;4.7;;
4325;SDS011;58429;49.826;10.880;2022-07-03T05:07:30;10.3;;;4.7;;
4325;SDS011;58429;49.826;10.880;2022-07-03T05:08:30;9;;;4.9;;
4325;SDS011;58429;49.826;10.880;2022-07-03T05:09:30;9;;;4.9;;
4325;SDS011;58429;49.826;10.880;2022-07-03T05:10:31;9;;;4.9;;
4325;SDS011;58429;49.826;10.880;2022-07-03T05:11:30;8.8;;;4.6;;
4325;SDS011;58429;49.826;10.880;2022-07-03T05:12:30;8.8;;;4.6;;
4325;SDS011;58429;49.826;10.880;2022-07-03T05:13:30;8.8;;;4.6;;
4325;SDS011;58429;49.826;10.880;2022-07-03T05:14:30;8;;;4.7;;
4325;SDS011;58429;49.826;10.880;2022-07-03T05:15:30;8;;;4.7;;
4325;SDS011;58429;49.826;10.880;2022-07-03T05:16:30;8;;;4.7;;
4325;SDS011;58429;49.826;10.880;2022-07-03T05:17:30;7.7;;;4.2;;
4325;SDS011;58429;49.826;10.880;2022-07-03T05:18:30;7.7;;;4.2;;
4325;SDS011;58429;49.826;10.880;2022-07-03T05:19:30;7.7;;;4.2;;
4325;SDS011;58429;49.826;10.880;2022-07-03T05:20:30;8.3;;;4.2;;
4325;SDS011;58429;49.826;10.880;2022-07-03T05:21:30;8.3;;;4.2;;
4325;SDS011;58429;49.826;10.880;2022-07-03T05:22:30;8.3;;;4.2;;
4325;SDS011;58429;49.826;10.880;2022-07-03T05:23:30;8.5;;;4.7;;
4325;SDS011;58429;49.826;10.880;2022-07-03T05:24:30;8.5;;;4.7;;
4325;SDS011;58429;49.826;10.880;2022-07-03T05:25:31;8.5;;;4.7;;
4325;SDS011;58429;49.826;10.880;2022-07-03T05:26:30;8.6;;;4.6;;
4325;SDS011;58429;49.826;10.880;2022-07-03T05:27:30;8.6;;;4.6;;
4325;SDS011;58429;49.826;10.880;2022-07-03T05:28:30;8.6;;;4.6;;
4325;SDS011;58429;49.826;10.880;2022-07-03T05:29:30;8.7;;;4.5;;
4325;SDS011;58429;49.826;10.880;2022-07-03T05:30:30;8.7;;;4.5;;
4325;SDS011;58429;49.826;10.880;2022-07-03T05:31:30;8.7;;;4.5;;
4325;SDS011;58429;49.826;10.880;2022-07-03T05:32:30;7.5;;;4.1;;
4325;SDS011;58429;49.826;10.880;2022-07-03T05:33:30;7.5;;;4.1;;
4325;SDS011;58429;49.826;10.880;2022-07-03T05:34:30;7.5;;;4.1;;
4325;SDS011;58429;49.826;10.880;2022-07-03T05:35:30;7.8;;;4.1;;
4325;SDS011;58429;49.826;10.880;2022-07-03T05:36:30;7.8;;;4.1;;
4325;SDS011;58429;49.826;10.880;2022-07-03T05:37:30;7.8;;;4.1;;
4325;SDS011;58429;49.826;10.880;2022-07-03T05:38:30;8.2;;;4.1;;
4325;SDS011;58429;49.826;10.880;2022-07-03T05:39:30;8.2;;;4.1;;
4325;SDS011;58429;49.826;10.880;2022-07-03T05:40:30;8.2;;;4.1;;
4325;SDS011;58429;49.826;10.880;2022-07-03T05:41:30;7.2;;;3.7;;
4325;SDS011;58429;49.826;10.880;2022-07-03T05:42:30;7.2;;;3.7;;
4325;SDS011;58429;49.826;10.880;2022-07-03T05:43:30;7.2;;;3.7;;
4325;SDS011;58429;49.826;10.880;2022-07-03T05:44:30;8.3;;;3.6;;
4325;SDS011;58429;49.826;10.880;2022-07-03T05:45:30;8.3;;;3.6;;
4325;SDS011;58429;49.826;10.880;2022-07-03T05:46:30;8.3;;;3.6;;
4325;SDS011;58429;49.826;10.880;2022-07-03T05:47:30;7.9;;;3.8;;
4325;SDS011;58429;49.826;10.880;2022-07-03T05:48:30;7.9;;;3.8;;
4325;SDS011;58429;49.826;10.880;2022-07-03T05:49:30;7.9;;;3.8;;
4325;SDS011;58429;49.826;10.880;2022-07-03T05:50:30;9.3;;;3.5;;
4325;SDS011;58429;49.826;10.880;2022-07-03T05:51:30;9.3;;;3.5;;
4325;SDS011;58429;49.826;10.880;2022-07-03T05:52:30;9.3;;;3.5;;
4325;SDS011;58429;49.826;10.880;2022-07-03T05:53:31;8.1;;;3.3;;
4325;SDS011;58429;49.826;10.880;2022-07-03T05:54:30;8.1;;;3.3;;
4325;SDS011;58429;49.826;10.880;2022-07-03T05:55:31;8.1;;;3.3;;
4325;SDS011;58429;49.826;10.880;2022-07-03T05:56:30;7.2;;;3.3;;
4325;SDS011;58429;49.826;10.880;2022-07-03T05:57:30;7.2;;;3.3;;
4325;SDS011;58429;49.826;10.880;2022-07-03T05:58:30;7.2;;;3.3;;
4325;SDS011;58429;49.826;10.880;2022-07-03T05:59:30;7;;;3.2;;
4325;SDS011;58429;49.826;10.880;2022-07-03T06:00:30;7;;;3.2;;
4325;SDS011;58429;49.826;10.880;2022-07-03T06:01:30;7;;;3.2;;
4325;SDS011;58429;49.826;10.880;2022-07-03T06:02:30;7.3;;;3.4;;
4325;SDS011;58429;49.826;10.880;2022-07-03T06:03:30;7.3;;;3.4;;
4325;SDS011;58429;49.826;10.880;2022-07-03T06:04:30;7.3;;;3.4;;
4325;SDS011;58429;49.826;10.880;2022-07-03T06:05:30;6.6;;;3.2;;
4325;SDS011;58429;49.826;10.880;2022-07-03T06:06:30;6.6;;;3.2;;
4325;SDS011;58429;49.826;10.880;2022-07-03T06:07:30;6.6;;;3.2;;
4325;SDS011;58429;49.826;10.880;2022-07-03T06:08:30;6.8;;;3.4;;
4325;SDS011;58429;49.826;10.880;2022-07-03T06:09:30;6.8;;;3.4;;
4325;SDS011;58429;49.826;10.880;2022-07-03T06:10:30;6.8;;;3.4;;
4325;SDS011;58429;49.826;10.880;2022-07-03T06:11:31;7.5;;;3.4;;
4325;SDS011;58429;49.826;10.880;2022-07-03T06:12:30;7.5;;;3.4;;
4325;SDS011;58429;49.826;10.880;2022-07-03T06:13:30;7.5;;;3.4;;
4325;SDS011;58429;49.826;10.880;2022-07-03T06:14:30;7;;;3.2;;